sensor_id;sensor_type;location;lat;lon;timestamp;P1;durP1;ratioP1;P2;durP2;ratioP2
29414;SDS011;20303;48.302;11.914;2023-11-21T00:07:30;5.10;;;2.78;;
29414;SDS011;20303;48.302;11.914;2023-11-21T00:17:31;5.72;;;2.80;;
29414;SDS011;20303;48.302;11.914;2023-11-21T00:27:32;4.63;;;2.70;;
29414;SDS011;20303;48.302;11.914;2023-11-21T00:37:33;5.93;;;2.78;;
29414;SDS011;20303;48.302;11.914;2023-11-21T00:47:34;5.35;;;2.70;;
29414;SDS011;20303;48.302;11.914;2023-11-21T00:57:35;4.60;;;2.40;;
29414;SDS011;20303;48.302;11.914;2023-11-21T01:07:37;6.80;;;2.60;;
29414;SDS011;20303;48.302;11.914;2023-11-21T01:17:38;3.80;;;2.55;;
29414;SDS011;20303;48.302;11.914;2023-11-21T01:27:39;4.63;;;2.47;;
29414;SDS011;20303;48.302;11.914;2023-11-21T01:37:40;4.82;;;2.40;;
29414;SDS011;20303;48.302;11.914;2023-11-21T01:47:41;4.78;;;2.33;;
29414;SDS011;20303;48.302;11.914;2023-11-21T01:57:43;5.05;;;2.20;;
29414;SDS011;20303;48.302;11.914;2023-11-21T02:07:46;3.58;;;2.10;;
29414;SDS011;20303;48.302;11.914;2023-11-21T02:17:52;3.70;;;2.08;;
29414;SDS011;20303;48.302;11.914;2023-11-21T02:27:54;3.53;;;2.08;;
29414;SDS011;20303;48.302;11.914;2023-11-21T02:37:55;3.10;;;2.00;;
29414;SDS011;20303;48.302;11.914;2023-11-21T02:47:56;3.42;;;2.03;;
29414;SDS011;20303;48.302;11.914;2023-11-21T02:57:57;3.65;;;1.80;;
29414;SDS011;20303;48.302;11.914;2023-11-21T03:07:58;2.78;;;1.85;;
29414;SDS011;20303;48.302;11.914;2023-11-21T03:17:59;3.08;;;1.85;;
29414;SDS011;20303;48.302;11.914;2023-11-21T03:28:00;2.25;;;1.63;;
29414;SDS011;20303;48.302;11.914;2023-11-21T03:38:01;3.15;;;1.70;;
29414;SDS011;20303;48.302;11.914;2023-11-21T03:48:02;2.55;;;1.40;;
29414;SDS011;20303;48.302;11.914;2023-11-21T03:58:04;2.60;;;1.63;;
29414;SDS011;20303;48.302;11.914;2023-11-21T04:08:05;3.08;;;1.80;;
29414;SDS011;20303;48.302;11.914;2023-11-21T04:18:06;2.40;;;1.42;;
29414;SDS011;20303;48.302;11.914;2023-11-21T04:28:07;2.42;;;1.50;;
29414;SDS011;20303;48.302;11.914;2023-11-21T04:38:08;2.53;;;1.42;;
29414;SDS011;20303;48.302;11.914;2023-11-21T04:48:09;2.97;;;1.30;;
29414;SDS011;20303;48.302;11.914;2023-11-21T04:58:10;2.70;;;1.50;;
29414;SDS011;20303;48.302;11.914;2023-11-21T05:08:12;2.88;;;1.35;;
29414;SDS011;20303;48.302;11.914;2023-11-21T05:18:13;4.32;;;1.45;;
29414;SDS011;20303;48.302;11.914;2023-11-21T05:28:14;3.10;;;1.40;;
29414;SDS011;20303;48.302;11.914;2023-11-21T05:38:15;3.88;;;1.30;;
29414;SDS011;20303;48.302;11.914;2023-11-21T05:48:16;3.72;;;1.52;;
29414;SDS011;20303;48.302;11.914;2023-11-21T05:58:17;3.97;;;1.50;;
29414;SDS011;20303;48.302;11.914;2023-11-21T06:08:18;3.85;;;1.30;;
29414;SDS011;20303;48.302;11.914;2023-11-21T06:18:19;3.45;;;1.55;;
29414;SDS011;20303;48.302;11.914;2023-11-21T06:28:20;9.93;;;1.73;;
29414;SDS011;20303;48.302;11.914;2023-11-21T06:38:21;6.07;;;1.80;;
29414;SDS011;20303;48.302;11.914;2023-11-21T06:48:22;5.78;;;1.63;;
29414;SDS011;20303;48.302;11.914;2023-11-21T06:58:23;9.10;;;1.98;;
29414;SDS011;20303;48.302;11.914;2023-11-21T07:08:24;7.47;;;1.85;;
29414;SDS011;20303;48.302;11.914;2023-11-21T07:18:25;8.02;;;2.17;;
29414;SDS011;20303;48.302;11.914;2023-11-21T07:28:26;10.60;;;2.33;;
29414;SDS011;20303;48.302;11.914;2023-11-21T07:38:27;8.80;;;2.08;;
29414;SDS011;20303;48.302;11.914;2023-11-21T07:48:32;7.57;;;1.98;;
29414;SDS011;20303;48.302;11.914;2023-11-21T07:58:33;9.02;;;2.03;;
29414;SDS011;20303;48.302;11.914;2023-11-21T08:08:35;8.38;;;1.90;;
29414;SDS011;20303;48.302;11.914;2023-11-21T08:18:36;6.70;;;1.92;;
29414;SDS011;20303;48.302;11.914;2023-11-21T08:28:37;8.30;;;2.40;;
29414;SDS011;20303;48.302;11.914;2023-11-21T08:38:38;7.13;;;2.10;;
29414;SDS011;20303;48.302;11.914;2023-11-21T08:48:41;6.60;;;2.10;;
29414;SDS011;20303;48.302;11.914;2023-11-21T08:58:43;6.80;;;2.05;;
29414;SDS011;20303;48.302;11.914;2023-11-21T09:08:45;4.40;;;1.85;;
29414;SDS011;20303;48.302;11.914;2023-11-21T09:18:46;6.00;;;1.98;;
29414;SDS011;20303;48.302;11.914;2023-11-21T09:28:47;4.70;;;1.90;;
29414;SDS011;20303;48.302;11.914;2023-11-21T09:38:48;3.55;;;1.77;;
29414;SDS011;20303;48.302;11.914;2023-11-21T09:48:50;3.88;;;1.63;;
29414;SDS011;20303;48.302;11.914;2023-11-21T09:58:56;3.45;;;1.70;;
29414;SDS011;20303;48.302;11.914;2023-11-21T10:09:03;3.42;;;1.70;;
29414;SDS011;20303;48.302;11.914;2023-11-21T10:19:13;3.63;;;1.60;;
29414;SDS011;20303;48.302;11.914;2023-11-21T10:29:16;3.70;;;1.70;;
29414;SDS011;20303;48.302;11.914;2023-11-21T10:39:19;2.85;;;1.42;;
29414;SDS011;20303;48.302;11.914;2023-11-21T10:49:20;3.60;;;1.52;;
29414;SDS011;20303;48.302;11.914;2023-11-21T10:59:25;3.53;;;1.70;;
29414;SDS011;20303;48.302;11.914;2023-11-21T11:09:29;3.72;;;1.40;;
29414;SDS011;20303;48.302;11.914;2023-11-21T11:19:34;3.92;;;1.80;;
29414;SDS011;20303;48.302;11.914;2023-11-21T11:39:43;4.50;;;1.58;;
29414;SDS011;20303;48.302;11.914;2023-11-21T11:49:55;7.07;;;2.25;;
29414;SDS011;20303;48.302;11.914;2023-11-21T12:00:17;7.68;;;3.15;;
29414;SDS011;20303;48.302;11.914;2023-11-21T12:10:31;9.90;;;3.20;;
29414;SDS011;20303;48.302;11.914;2023-11-21T12:20:33;13.05;;;4.40;;
29414;SDS011;20303;48.302;11.914;2023-11-21T12:30:38;10.63;;;4.50;;
29414;SDS011;20303;48.302;11.914;2023-11-21T12:40:39;12.75;;;4.70;;
29414;SDS011;20303;48.302;11.914;2023-11-21T12:50:40;15.40;;;4.72;;
29414;SDS011;20303;48.302;11.914;2023-11-21T13:00:45;9.93;;;4.15;;
29414;SDS011;20303;48.302;11.914;2023-11-21T13:10:48;11.38;;;4.68;;
29414;SDS011;20303;48.302;11.914;2023-11-21T13:20:51;10.50;;;4.30;;
29414;SDS011;20303;48.302;11.914;2023-11-21T13:30:55;12.02;;;5.10;;
29414;SDS011;20303;48.302;11.914;2023-11-21T13:40:56;12.65;;;4.57;;
29414;SDS011;20303;48.302;11.914;2023-11-21T13:50:58;10.13;;;4.47;;
29414;SDS011;20303;48.302;11.914;2023-11-21T14:01:03;9.10;;;4.22;;
29414;SDS011;20303;48.302;11.914;2023-11-21T14:11:06;8.85;;;4.05;;
29414;SDS011;20303;48.302;11.914;2023-11-21T14:21:07;9.90;;;4.00;;
29414;SDS011;20303;48.302;11.914;2023-11-21T14:31:10;7.68;;;3.92;;
29414;SDS011;20303;48.302;11.914;2023-11-21T14:41:14;7.45;;;3.45;;
29414;SDS011;20303;48.302;11.914;2023-11-21T14:51:15;7.97;;;3.38;;
29414;SDS011;20303;48.302;11.914;2023-11-21T15:01:31;11.38;;;3.42;;
29414;SDS011;20303;48.302;11.914;2023-11-21T15:11:54;8.00;;;3.30;;
29414;SDS011;20303;48.302;11.914;2023-11-21T15:22:02;7.50;;;3.20;;
29414;SDS011;20303;48.302;11.914;2023-11-21T15:32:04;7.30;;;3.28;;
29414;SDS011;20303;48.302;11.914;2023-11-21T15:42:06;5.82;;;3.33;;
29414;SDS011;20303;48.302;11.914;2023-11-21T15:52:07;7.13;;;3.00;;
29414;SDS011;20303;48.302;11.914;2023-11-21T16:02:10;6.70;;;2.90;;
29414;SDS011;20303;48.302;11.914;2023-11-21T16:12:11;8.60;;;2.92;;
29414;SDS011;20303;48.302;11.914;2023-11-21T16:22:12;6.25;;;3.17;;
29414;SDS011;20303;48.302;11.914;2023-11-21T16:32:14;7.90;;;2.85;;
29414;SDS011;20303;48.302;11.914;2023-11-21T16:42:16;7.03;;;3.28;;
29414;SDS011;20303;48.302;11.914;2023-11-21T16:52:17;7.45;;;3.08;;
29414;SDS011;20303;48.302;11.914;2023-11-21T17:02:22;10.30;;;3.10;;
29414;SDS011;20303;48.302;11.914;2023-11-21T17:12:23;8.25;;;3.05;;
29414;SDS011;20303;48.302;11.914;2023-11-21T17:22:26;5.78;;;3.00;;
29414;SDS011;20303;48.302;11.914;2023-11-21T17:32:27;5.35;;;2.90;;
29414;SDS011;20303;48.302;11.914;2023-11-21T17:42:29;7.40;;;2.92;;
29414;SDS011;20303;48.302;11.914;2023-11-21T17:52:30;6.88;;;3.08;;
29414;SDS011;20303;48.302;11.914;2023-11-21T18:02:32;6.22;;;3.20;;
29414;SDS011;20303;48.302;11.914;2023-11-21T18:12:33;5.97;;;2.95;;
29414;SDS011;20303;48.302;11.914;2023-11-21T18:22:34;7.68;;;3.00;;
29414;SDS011;20303;48.302;11.914;2023-11-21T18:32:35;5.65;;;3.00;;
29414;SDS011;20303;48.302;11.914;2023-11-21T18:42:36;4.60;;;2.70;;
29414;SDS011;20303;48.302;11.914;2023-11-21T18:52:38;6.30;;;3.00;;
29414;SDS011;20303;48.302;11.914;2023-11-21T19:02:39;6.43;;;2.60;;
29414;SDS011;20303;48.302;11.914;2023-11-21T19:12:40;5.28;;;2.47;;
29414;SDS011;20303;48.302;11.914;2023-11-21T19:22:41;5.43;;;2.80;;
29414;SDS011;20303;48.302;11.914;2023-11-21T19:32:42;5.20;;;2.50;;
29414;SDS011;20303;48.302;11.914;2023-11-21T19:42:44;5.07;;;2.40;;
29414;SDS011;20303;48.302;11.914;2023-11-21T19:52:45;5.70;;;2.90;;
29414;SDS011;20303;48.302;11.914;2023-11-21T20:02:46;19.52;;;4.45;;
29414;SDS011;20303;48.302;11.914;2023-11-21T20:12:49;24.52;;;5.00;;
29414;SDS011;20303;48.302;11.914;2023-11-21T20:22:51;33.20;;;5.75;;
29414;SDS011;20303;48.302;11.914;2023-11-21T20:32:52;33.83;;;6.85;;
29414;SDS011;20303;48.302;11.914;2023-11-21T20:42:53;36.13;;;7.15;;
29414;SDS011;20303;48.302;11.914;2023-11-21T20:53:02;32.40;;;6.47;;
29414;SDS011;20303;48.302;11.914;2023-11-21T21:03:07;34.15;;;7.05;;
29414;SDS011;20303;48.302;11.914;2023-11-21T21:13:08;28.00;;;6.78;;
29414;SDS011;20303;48.302;11.914;2023-11-21T21:23:13;27.55;;;6.80;;
29414;SDS011;20303;48.302;11.914;2023-11-21T21:33:14;26.73;;;6.70;;
29414;SDS011;20303;48.302;11.914;2023-11-21T21:43:16;27.77;;;6.32;;
29414;SDS011;20303;48.302;11.914;2023-11-21T21:53:17;22.35;;;6.35;;
29414;SDS011;20303;48.302;11.914;2023-11-21T22:03:18;23.42;;;6.05;;
29414;SDS011;20303;48.302;11.914;2023-11-21T22:13:19;26.75;;;6.38;;
29414;SDS011;20303;48.302;11.914;2023-11-21T22:23:20;21.55;;;5.82;;
29414;SDS011;20303;48.302;11.914;2023-11-21T22:33:21;18.08;;;5.57;;
29414;SDS011;20303;48.302;11.914;2023-11-21T22:43:23;16.13;;;5.13;;
29414;SDS011;20303;48.302;11.914;2023-11-21T22:53:24;17.65;;;5.45;;
29414;SDS011;20303;48.302;11.914;2023-11-21T23:03:25;13.82;;;5.18;;
29414;SDS011;20303;48.302;11.914;2023-11-21T23:13:26;16.23;;;4.88;;
29414;SDS011;20303;48.302;11.914;2023-11-21T23:23:29;16.02;;;4.78;;
29414;SDS011;20303;48.302;11.914;2023-11-21T23:33:30;12.48;;;4.60;;
29414;SDS011;20303;48.302;11.914;2023-11-21T23:43:31;12.70;;;4.45;;
29414;SDS011;20303;48.302;11.914;2023-11-21T23:53:32;9.73;;;4.22;;
